Time;durP1;ratioP1;P1;durP2;ratioP2;P2;SDS_P1;SDS_P2;PMS_P1;PMS_P2;Temp;Humidity;BMP_temperature;BMP_pressure;BME280_temperature;BME280_humidity;BME280_pressure;Samples;Min_cycle;Max_cycle;Signal;HPM_P1;HPM_P2
2022/07/24 00:01:05;;;;;;;11.82;9.57;;;;;;;23.17;49.38;101778.22;5055022;28;20045;-66
2022/07/24 00:03:36;;;;;;;16.23;10.13;;;;;;;23.16;49.71;101773.75;5054938;28;20045;-67
2022/07/24 00:06:04;;;;;;;16.23;10.25;;;;;;;23.14;49.80;101771.19;5055024;28;20033;-66
2022/07/24 00:08:31;;;;;;;16.38;10.98;;;;;;;23.10;49.69;101769.81;5054666;28;20037;-66
2022/07/24 00:10:58;;;;;;;12.43;10.73;;;;;;;23.07;49.91;101765.53;5054925;28;20041;-67
2022/07/24 00:13:26;;;;;;;12.80;10.23;;;;;;;23.05;49.91;101762.09;5054972;28;20399;-66
2022/07/24 00:15:53;;;;;;;17.67;11.32;;;;;;;23.02;50.11;101765.13;5054722;28;20053;-65
2022/07/24 00:18:20;;;;;;;14.23;10.75;;;;;;;23.02;49.90;101761.53;5055065;28;20052;-66
2022/07/24 00:20:46;;;;;;;13.57;10.45;;;;;;;23.00;50.09;101769.06;5055009;28;20045;-65
2022/07/24 00:23:18;;;;;;;13.98;10.95;;;;;;;22.97;50.16;101767.53;5055122;28;20087;-65
2022/07/24 00:25:45;;;;;;;14.18;10.02;;;;;;;22.96;49.98;101768.56;5055681;28;20042;-66
2022/07/24 00:28:12;;;;;;;14.98;10.30;;;;;;;22.95;50.23;101771.47;5054618;28;20112;-66
2022/07/24 00:30:38;;;;;;;14.48;10.30;;;;;;;22.95;50.21;101774.19;5053998;28;20045;-66
2022/07/24 00:33:08;;;;;;;11.30;10.10;;;;;;;22.94;49.80;101772.47;5053933;28;20049;-66
2022/07/24 00:35:35;;;;;;;13.73;10.60;;;;;;;22.92;50.12;101769.06;5052293;28;20033;-65
2022/07/24 00:38:02;;;;;;;12.80;10.35;;;;;;;22.92;49.80;101771.78;5053241;28;20049;-65
2022/07/24 00:40:29;;;;;;;13.43;10.25;;;;;;;22.91;49.96;101761.84;5054010;28;20049;-65
2022/07/24 00:42:58;;;;;;;14.68;11.40;;;;;;;22.90;49.97;101773.84;5053829;28;20072;-65
2022/07/24 00:45:24;;;;;;;17.77;11.23;;;;;;;22.86;49.97;101770.56;5053588;28;20345;-66
2022/07/24 00:47:52;;;;;;;15.43;10.88;;;;;;;22.82;50.12;101767.31;5053263;28;20091;-65
2022/07/24 00:50:24;;;;;;;12.25;10.45;;;;;;;22.81;50.52;101770.22;5053119;28;20046;-66
2022/07/24 00:52:56;;;;;;;12.60;10.00;;;;;;;22.77;50.41;101769.66;5053180;28;20210;-66
2022/07/24 00:55:23;;;;;;;11.23;9.70;;;;;;;22.76;50.34;101776.16;5053099;28;20033;-66
2022/07/24 00:57:50;;;;;;;16.77;10.48;;;;;;;22.74;50.28;101763.66;5052686;28;20039;-67
2022/07/24 01:00:19;;;;;;;13.23;10.30;;;;;;;22.71;50.33;101769.47;5053010;28;20041;-66
2022/07/24 01:02:48;;;;;;;11.80;10.43;;;;;;;22.68;50.21;101764.31;5053203;28;20041;-67
2022/07/24 01:05:16;;;;;;;14.02;10.30;;;;;;;22.68;50.53;101765.19;5052964;28;20143;-67
2022/07/24 01:07:43;;;;;;;11.82;9.90;;;;;;;22.66;50.29;101766.38;5052783;28;20540;-66
2022/07/24 01:10:10;;;;;;;12.80;11.20;;;;;;;22.64;50.30;101758.31;5052792;28;20040;-66
2022/07/24 01:12:55;;;;;;;14.90;10.68;;;;;;;22.59;50.54;101755.22;5052951;28;20409;-66
2022/07/24 01:15:21;;;;;;;13.00;10.13;;;;;;;22.60;50.70;101756.09;5053097;28;20509;-65
2022/07/24 01:17:48;;;;;;;12.95;10.07;;;;;;;22.55;50.40;101761.19;5052718;28;20041;-65
2022/07/24 01:20:14;;;;;;;13.10;10.60;;;;;;;22.52;50.60;101759.66;5052960;28;20142;-66
2022/07/24 01:23:06;;;;;;;12.70;10.38;;;;;;;22.47;50.86;101762.03;5053007;28;20558;-66
2022/07/24 01:25:33;;;;;;;12.98;10.68;;;;;;;22.46;50.88;101761.16;5052960;28;20033;-66
2022/07/24 01:28:00;;;;;;;13.18;10.50;;;;;;;22.44;50.83;101765.09;5052297;28;20041;-66
2022/07/24 01:30:26;;;;;;;13.65;10.40;;;;;;;22.41;50.51;101752.59;5053006;28;20140;-66
2022/07/24 01:32:54;;;;;;;12.77;11.13;;;;;;;22.39;50.64;101749.16;5052587;28;20051;-67
2022/07/24 01:35:21;;;;;;;14.45;11.40;;;;;;;22.37;50.92;101747.59;5052436;28;20503;-66
2022/07/24 01:37:50;;;;;;;13.10;10.93;;;;;;;22.33;50.84;101746.22;5052096;28;20380;-66
2022/07/24 01:40:16;;;;;;;13.02;10.52;;;;;;;22.29;50.80;101740.19;5052709;28;20049;-66
2022/07/24 01:42:44;;;;;;;15.00;11.52;;;;;;;22.25;50.71;101740.66;5052727;28;20048;-66
2022/07/24 01:45:11;;;;;;;17.73;11.70;;;;;;;22.16;50.87;101743.38;5052774;28;20071;-65
2022/07/24 01:47:38;;;;;;;16.25;10.65;;;;;;;22.07;50.82;101741.59;5051233;28;20373;-65
2022/07/24 01:50:05;;;;;;;11.90;9.57;;;;;;;22.00;50.99;101731.44;5052535;28;20049;-66
2022/07/24 01:52:31;;;;;;;13.48;10.52;;;;;;;21.94;51.22;101732.94;5052362;28;20068;-65
2022/07/24 01:54:58;;;;;;;13.27;10.32;;;;;;;21.91;51.19;101735.16;5051204;28;20052;-65
2022/07/24 01:57:25;;;;;;;11.80;10.60;;;;;;;21.89;51.38;101724.38;5052355;28;20374;-65
2022/07/24 01:59:55;;;;;;;12.52;10.55;;;;;;;21.89;51.22;101727.97;5052152;28;20043;-65
2022/07/24 02:02:25;;;;;;;15.77;11.50;;;;;;;21.89;51.24;101725.22;5051841;28;20040;-65
2022/07/24 02:04:54;;;;;;;14.07;11.15;;;;;;;21.88;50.92;101725.38;5052395;28;20033;-65
2022/07/24 02:07:21;;;;;;;13.50;11.30;;;;;;;21.84;51.14;101727.59;5051521;28;20049;-65
2022/07/24 02:09:48;;;;;;;13.02;10.85;;;;;;;21.79;50.99;101718.16;5052384;28;20063;-65
2022/07/24 02:12:14;;;;;;;12.93;11.63;;;;;;;21.71;51.10;101723.56;5052073;28;20537;-65
2022/07/24 02:14:42;;;;;;;12.05;10.85;;;;;;;21.64;51.03;101730.69;5052653;28;20064;-65
2022/07/24 02:17:08;;;;;;;12.27;10.95;;;;;;;21.59;51.43;101727.56;5051649;28;20029;-65
2022/07/24 02:19:35;;;;;;;13.98;11.30;;;;;;;21.55;51.76;101727.00;5052091;28;20116;-65
2022/07/24 02:22:02;;;;;;;13.95;11.40;;;;;;;21.53;51.66;101718.97;5051995;28;20037;-65
2022/07/24 02:24:32;;;;;;;14.13;11.23;;;;;;;21.48;51.69;101721.31;5052083;28;20037;-65
2022/07/24 02:26:59;;;;;;;15.75;12.57;;;;;;;21.44;51.63;101721.78;5051676;28;20044;-65
2022/07/24 02:29:29;;;;;;;14.77;11.60;;;;;;;21.40;51.53;101715.78;5051788;28;20053;-66
2022/07/24 02:31:57;;;;;;;12.85;10.68;;;;;;;21.37;51.88;101718.84;5052047;28;20048;-66
2022/07/24 02:34:25;;;;;;;13.75;11.48;;;;;;;21.36;52.14;101725.31;5051299;28;20450;-66
2022/07/24 02:36:51;;;;;;;13.73;11.40;;;;;;;21.36;51.76;101722.59;5051836;28;20060;-66
2022/07/24 02:39:18;;;;;;;13.32;11.57;;;;;;;21.35;51.77;101726.34;5052248;28;20055;-65
2022/07/24 02:41:44;;;;;;;13.43;11.55;;;;;;;21.35;51.78;101717.28;5052175;28;20049;-66
2022/07/24 02:44:11;;;;;;;14.43;11.45;;;;;;;21.33;52.34;101722.91;5051760;28;20052;-66
2022/07/24 02:46:37;;;;;;;12.15;10.82;;;;;;;21.31;52.04;101721.34;5051999;28;20235;-65
2022/07/24 02:49:04;;;;;;;12.82;11.45;;;;;;;21.27;52.05;101723.53;5051652;28;20049;-66
2022/07/24 02:51:31;;;;;;;16.73;11.40;;;;;;;21.24;52.11;101729.31;5050045;28;20041;-66
2022/07/24 02:53:59;;;;;;;14.63;11.57;;;;;;;21.20;52.24;101722.41;5051936;28;20045;-66
2022/07/24 02:56:26;;;;;;;13.85;11.80;;;;;;;21.17;52.49;101715.38;5051830;28;20049;-66
2022/07/24 02:58:52;;;;;;;14.93;11.48;;;;;;;21.17;52.74;101722.72;5051781;28;20127;-65
2022/07/24 03:01:19;;;;;;;13.45;11.65;;;;;;;21.18;52.32;101718.97;5052015;28;20049;-66
2022/07/24 03:03:46;;;;;;;12.40;11.07;;;;;;;21.19;52.60;101721.56;5051740;28;20099;-65
2022/07/24 03:06:12;;;;;;;13.00;11.27;;;;;;;21.19;52.54;101721.56;5051894;28;20499;-65
2022/07/24 03:08:39;;;;;;;13.32;11.10;;;;;;;21.19;52.36;101723.44;5051742;28;20041;-66
2022/07/24 03:11:06;;;;;;;14.48;11.43;;;;;;;21.16;52.56;101721.88;5051990;28;20060;-65
2022/07/24 03:13:33;;;;;;;22.42;12.60;;;;;;;21.13;52.53;101716.72;5051980;28;20444;-65
2022/07/24 03:16:00;;;;;;;12.45;10.85;;;;;;;21.11;52.63;101712.44;5052081;28;20047;-65
2022/07/24 03:18:27;;;;;;;14.48;11.55;;;;;;;21.09;52.68;101715.31;5052016;28;20132;-66
2022/07/24 03:20:53;;;;;;;15.82;12.48;;;;;;;21.09;53.02;101723.50;5051878;28;20037;-66
2022/07/24 03:23:21;;;;;;;14.68;11.52;;;;;;;21.09;52.86;101723.50;5052286;28;20036;-65
2022/07/24 03:25:48;;;;;;;15.23;12.38;;;;;;;21.10;53.05;101713.44;5052356;28;20506;-65
2022/07/24 03:28:15;;;;;;;12.80;11.32;;;;;;;21.11;52.93;101715.16;5052128;28;20483;-65
2022/07/24 03:30:42;;;;;;;13.10;11.05;;;;;;;21.12;52.86;101716.88;5051288;28;20136;-66
2022/07/24 03:33:12;;;;;;;12.27;10.65;;;;;;;21.14;53.19;101717.56;5050887;28;20045;-66
2022/07/24 03:35:39;;;;;;;17.15;11.45;;;;;;;21.15;52.73;101722.03;5050902;28;20063;-66
2022/07/24 03:38:06;;;;;;;12.82;11.38;;;;;;;21.16;52.77;101724.59;5050993;28;20045;-66
2022/07/24 03:40:33;;;;;;;15.27;12.20;;;;;;;21.17;52.65;101725.47;5050649;28;20079;-66
2022/07/24 03:43:03;;;;;;;12.82;11.30;;;;;;;21.15;52.65;101720.16;5051028;28;20045;-66
2022/07/24 03:45:29;;;;;;;13.32;10.88;;;;;;;21.13;52.88;101716.72;5050807;28;20426;-66
2022/07/24 03:47:56;;;;;;;13.95;11.43;;;;;;;21.07;52.54;101719.22;5050893;28;20125;-66
2022/07/24 03:50:22;;;;;;;15.32;11.57;;;;;;;21.00;52.58;101720.84;5050998;28;20041;-66
2022/07/24 03:52:50;;;;;;;14.38;12.10;;;;;;;20.94;52.84;101719.59;5050441;28;20049;-66
2022/07/24 03:55:17;;;;;;;14.50;12.52;;;;;;;20.91;52.63;101717.19;5050452;28;20110;-65
2022/07/24 03:57:44;;;;;;;17.35;13.63;;;;;;;20.89;53.14;101714.59;5050957;28;20491;-65
2022/07/24 04:00:11;;;;;;;18.67;14.00;;;;;;;20.86;53.01;101723.09;5051040;28;20055;-66
2022/07/24 04:02:40;;;;;;;17.10;15.07;;;;;;;20.87;52.95;101718.50;5050891;28;20414;-67
2022/07/24 04:05:08;;;;;;;17.52;14.85;;;;;;;20.85;53.16;101724.13;5050965;28;20039;-66
2022/07/24 04:07:36;;;;;;;20.63;17.20;;;;;;;20.83;53.31;101723.41;5050807;28;20037;-66
2022/07/24 04:10:05;;;;;;;18.73;16.75;;;;;;;20.82;53.44;101724.44;5052227;28;20041;-65
2022/07/24 04:12:32;;;;;;;17.70;15.23;;;;;;;20.80;53.40;101722.84;5054195;28;20053;-65
2022/07/24 04:14:59;;;;;;;21.48;17.08;;;;;;;20.78;53.48;101711.22;5054131;28;20041;-65
2022/07/24 04:17:26;;;;;;;21.33;16.98;;;;;;;20.77;53.87;101715.81;5054618;28;20501;-65
2022/07/24 04:19:53;;;;;;;22.38;16.15;;;;;;;20.77;53.65;101712.22;5054374;28;20049;-65
2022/07/24 04:22:19;;;;;;;21.42;16.98;;;;;;;20.77;53.94;101715.81;5054364;28;20041;-65
2022/07/24 04:24:48;;;;;;;21.70;16.65;;;;;;;20.75;54.27;101712.38;5054090;28;20041;-65
2022/07/24 04:27:15;;;;;;;20.60;17.75;;;;;;;20.77;54.19;101715.81;5054732;28;20047;-66
2022/07/24 04:29:41;;;;;;;18.70;16.50;;;;;;;20.77;54.05;101707.63;5054224;28;20051;-66
2022/07/24 04:32:08;;;;;;;21.80;17.58;;;;;;;20.77;54.42;101710.34;5053284;28;20044;-66
2022/07/24 04:34:34;;;;;;;22.23;16.85;;;;;;;20.78;54.26;101722.13;5054240;28;20090;-67
2022/07/24 04:37:01;;;;;;;19.77;17.05;;;;;;;20.80;54.60;101715.50;5052883;28;20047;-66
2022/07/24 04:39:27;;;;;;;22.33;18.05;;;;;;;20.83;54.70;101726.16;5054039;28;20071;-66
2022/07/24 04:41:54;;;;;;;20.58;16.30;;;;;;;20.85;54.75;101721.38;5052009;28;20517;-66
2022/07/24 04:44:20;;;;;;;18.88;16.83;;;;;;;20.90;54.50;101731.84;5053876;28;20053;-66
2022/07/24 04:46:47;;;;;;;20.65;17.40;;;;;;;20.91;54.80;101733.56;5054011;28;20044;-66
2022/07/24 04:49:14;;;;;;;18.98;16.45;;;;;;;20.89;54.82;101733.72;5053874;28;20049;-66
2022/07/24 04:51:40;;;;;;;23.08;16.30;;;;;;;20.91;54.65;101733.56;5052762;28;20049;-66
2022/07/24 04:54:11;;;;;;;18.75;16.17;;;;;;;20.89;54.81;101741.91;5053016;28;20053;-66
2022/07/24 04:56:37;;;;;;;23.02;17.02;;;;;;;20.90;54.54;101738.16;5053542;28;20055;-66
2022/07/24 04:59:04;;;;;;;18.30;15.10;;;;;;;20.93;55.11;101745.19;5054200;28;20045;-66
2022/07/24 05:01:31;;;;;;;18.60;16.02;;;;;;;20.96;54.70;101744.03;5052357;28;20065;-66
2022/07/24 05:04:02;;;;;;;24.30;16.60;;;;;;;20.96;55.13;101742.16;5053249;28;20047;-66
2022/07/24 05:06:29;;;;;;;18.45;16.15;;;;;;;20.94;55.03;101742.31;5053605;28;20033;-66
2022/07/24 05:08:55;;;;;;;17.92;16.02;;;;;;;20.94;54.92;101739.56;5053438;28;20033;-66
2022/07/24 05:11:22;;;;;;;18.77;15.75;;;;;;;20.91;55.07;101734.44;5053079;28;20047;-66
2022/07/24 05:13:54;;;;;;;22.33;17.10;;;;;;;20.90;55.70;101743.63;5053492;28;20044;-67
2022/07/24 05:16:20;;;;;;;24.67;17.38;;;;;;;20.91;55.49;101744.50;5053476;28;20052;-66
2022/07/24 05:18:47;;;;;;;19.02;16.50;;;;;;;20.96;55.96;101736.69;5053381;28;20112;-66
2022/07/24 05:21:17;;;;;;;20.90;17.40;;;;;;;21.01;55.86;101742.53;5051951;28;20033;-66
2022/07/24 05:23:47;;;;;;;22.45;18.25;;;;;;;21.04;55.92;101739.50;5053190;28;20045;-67
2022/07/24 05:26:14;;;;;;;22.05;17.50;;;;;;;21.09;55.96;101741.78;5053427;28;20132;-66
2022/07/24 05:28:40;;;;;;;21.67;17.92;;;;;;;21.13;56.36;101738.56;5053629;28;20041;-66
2022/07/24 05:31:08;;;;;;;21.05;17.63;;;;;;;21.18;56.65;101741.69;5053099;28;20495;-66
2022/07/24 05:33:36;;;;;;;22.05;18.20;;;;;;;21.23;56.38;101738.53;5053308;28;20049;-66
2022/07/24 05:36:03;;;;;;;20.25;17.73;;;;;;;21.28;56.35;101732.59;5053246;28;20041;-66
2022/07/24 05:38:30;;;;;;;23.90;17.42;;;;;;;21.33;56.43;101738.44;5053111;28;20041;-66
2022/07/24 05:40:56;;;;;;;21.38;17.85;;;;;;;21.38;56.74;101734.22;5052501;28;20132;-66
2022/07/24 05:43:48;;;;;;;22.73;18.60;;;;;;;21.45;56.72;101738.03;5052505;28;20041;-65
2022/07/24 05:46:15;;;;;;;25.02;18.95;;;;;;;21.55;56.92;101738.84;5052258;28;20048;-69
2022/07/24 05:48:44;;;;;;;27.80;20.45;;;;;;;21.60;56.52;101734.75;5053248;28;20115;-66
2022/07/24 05:51:11;;;;;;;25.77;21.30;;;;;;;21.66;57.05;101737.72;5052532;28;20069;-65
2022/07/24 05:53:42;;;;;;;31.25;21.02;;;;;;;21.74;56.75;101742.38;5052468;28;20115;-67
2022/07/24 05:56:08;;;;;;;24.70;20.83;;;;;;;21.80;57.06;101745.34;5052901;28;20049;-66
2022/07/24 05:58:35;;;;;;;28.92;21.13;;;;;;;21.87;57.02;101740.09;5051562;28;20040;-66
2022/07/24 06:01:02;;;;;;;25.15;20.92;;;;;;;21.94;57.10;101735.69;5052860;28;20407;-65
2022/07/24 06:03:32;;;;;;;31.85;22.25;;;;;;;22.03;57.18;101734.75;5051735;28;20491;-66
2022/07/24 06:05:58;;;;;;;24.30;20.98;;;;;;;22.14;57.23;101742.66;5053040;28;20128;-65
2022/07/24 06:08:25;;;;;;;26.92;20.73;;;;;;;22.24;57.22;101753.50;5052517;28;20033;-66
2022/07/24 06:10:52;;;;;;;30.38;21.67;;;;;;;22.36;57.02;101754.97;5053096;28;20041;-66
2022/07/24 06:13:19;;;;;;;27.33;21.95;;;;;;;22.49;56.88;101758.09;5052986;28;20144;-66
2022/07/24 06:15:46;;;;;;;26.92;22.30;;;;;;;22.62;57.02;101762.25;5051421;28;20402;-66
2022/07/24 06:18:12;;;;;;;28.52;22.65;;;;;;;22.75;56.83;101763.50;5052702;28;20387;-66
2022/07/24 06:20:39;;;;;;;26.92;20.83;;;;;;;22.89;56.93;101764.75;5052648;28;20057;-66
2022/07/24 06:23:07;;;;;;;31.77;21.38;;;;;;;22.98;56.33;101771.13;5052700;28;20491;-67
2022/07/24 06:25:46;;;;;;;26.77;22.48;;;;;;;23.09;56.34;101768.09;5052792;28;20084;-66
2022/07/24 06:28:13;;;;;;;28.58;22.52;;;;;;;23.20;56.30;101767.78;5053087;28;20041;-66
2022/07/24 06:30:40;;;;;;;29.10;22.20;;;;;;;23.32;56.29;101774.63;5051119;28;20410;-67
2022/07/24 06:33:09;;;;;;;26.92;22.88;;;;;;;23.43;56.24;101777.03;5051392;28;20095;-67
2022/07/24 06:35:36;;;;;;;24.42;21.17;;;;;;;23.54;55.86;101770.38;5052094;28;20116;-67
2022/07/24 06:38:02;;;;;;;27.92;22.25;;;;;;;23.68;55.96;101772.44;5051870;28;20390;-66
2022/07/24 06:40:29;;;;;;;27.77;20.98;;;;;;;23.82;55.75;101765.44;5051741;28;20593;-67
2022/07/24 06:42:58;;;;;;;25.70;20.17;;;;;;;23.96;55.44;101763.88;5052124;28;20424;-67
2022/07/24 06:45:25;;;;;;;26.17;19.33;;;;;;;24.05;55.27;101760.09;5051955;28;20064;-67
2022/07/24 06:47:52;;;;;;;25.33;18.38;;;;;;;24.16;55.30;101759.72;5051501;28;20053;-66
2022/07/24 06:50:18;;;;;;;28.80;21.08;;;;;;;24.29;55.17;101761.94;5051344;28;20045;-67
2022/07/24 06:52:46;;;;;;;28.80;19.13;;;;;;;24.46;54.89;101765.47;5051732;28;20044;-67
2022/07/24 06:55:13;;;;;;;21.90;17.95;;;;;;;24.56;54.51;101758.78;5051540;28;20041;-67
2022/07/24 06:57:39;;;;;;;22.38;17.63;;;;;;;24.65;54.54;101759.59;5051515;28;20483;-66
2022/07/24 07:00:08;;;;;;;23.63;16.35;;;;;;;24.81;54.29;101758.66;5051755;28;20049;-66
2022/07/24 07:02:36;;;;;;;20.42;15.57;;;;;;;24.99;53.69;101767.50;5051604;28;20037;-67
2022/07/24 07:05:10;;;;;;;19.85;14.32;;;;;;;25.18;53.33;101766.19;5051416;28;20069;-66
2022/07/24 07:07:37;;;;;;;16.30;13.85;;;;;;;25.30;52.70;101765.59;5051766;28;20127;-67
2022/07/24 07:10:05;;;;;;;18.02;13.70;;;;;;;25.40;51.99;101767.25;5051259;28;20037;-67
2022/07/24 07:12:32;;;;;;;22.10;14.48;;;;;;;25.47;52.02;101771.84;5051092;28;20041;-67
2022/07/24 07:15:09;;;;;;;16.52;11.45;;;;;;;25.60;51.49;101762.97;5051473;28;20043;-67
2022/07/24 07:17:38;;;;;;;17.85;12.43;;;;;;;25.68;51.09;101757.41;5051197;28;20454;-67
2022/07/24 07:20:06;;;;;;;15.70;12.90;;;;;;;25.78;50.81;101755.25;5050653;28;20072;-67
2022/07/24 07:22:33;;;;;;;16.17;12.90;;;;;;;25.92;51.01;101750.81;5051142;28;20047;-67
2022/07/24 07:24:59;;;;;;;16.08;12.07;;;;;;;26.07;50.48;101746.22;5051550;28;20041;-67
2022/07/24 07:27:26;;;;;;;16.33;11.55;;;;;;;26.24;50.12;101739.47;5051418;28;20514;-67
2022/07/24 07:29:52;;;;;;;16.25;11.23;;;;;;;26.36;49.86;101748.16;5049660;28;20045;-67
2022/07/24 07:32:19;;;;;;;16.10;11.25;;;;;;;26.53;49.56;101754.31;5051098;28;20047;-67
2022/07/24 07:34:47;;;;;;;14.20;10.68;;;;;;;26.75;49.30;101757.97;5051452;28;20051;-68
2022/07/24 07:37:14;;;;;;;12.02;10.75;;;;;;;26.89;48.56;101751.59;5050757;28;20037;-68
2022/07/24 07:39:41;;;;;;;14.40;10.85;;;;;;;27.07;48.02;101751.19;5051113;28;20609;-68
2022/07/24 07:42:07;;;;;;;15.15;10.43;;;;;;;27.26;47.71;101746.94;5048642;28;20037;-66
2022/07/24 07:44:36;;;;;;;10.82;9.40;;;;;;;27.36;47.72;101751.09;5051900;28;20045;-67
2022/07/24 07:47:05;;;;;;;12.38;9.80;;;;;;;27.49;47.42;101747.59;5054922;28;20044;-66
2022/07/24 07:49:31;;;;;;;12.50;10.27;;;;;;;27.59;47.26;101755.56;5054705;28;20051;-67
2022/07/24 07:51:58;;;;;;;11.52;9.52;;;;;;;27.64;46.72;101753.09;5053812;28;20044;-66
2022/07/24 07:54:25;;;;;;;16.83;9.05;;;;;;;27.74;46.70;101756.34;5054353;28;20041;-66
2022/07/24 07:56:52;;;;;;;10.30;7.97;;;;;;;27.83;46.20;101757.91;5054120;28;20047;-66
2022/07/24 07:59:18;;;;;;;12.70;7.38;;;;;;;27.96;45.98;101757.16;5054576;28;20033;-67
2022/07/24 08:01:45;;;;;;;11.82;8.35;;;;;;;28.11;45.70;101760.66;5054387;28;20495;-66
2022/07/24 08:04:13;;;;;;;9.10;6.75;;;;;;;28.16;45.00;101755.38;5054421;28;20063;-66
2022/07/24 08:06:39;;;;;;;9.25;6.13;;;;;;;28.18;44.81;101742.22;5054078;28;20037;-66
2022/07/24 08:09:06;;;;;;;6.88;4.68;;;;;;;28.30;44.56;101742.56;5054017;28;20053;-66
2022/07/24 08:11:35;;;;;;;7.15;5.30;;;;;;;28.40;43.91;101738.38;5053985;28;20127;-67
2022/07/24 08:14:03;;;;;;;9.50;6.93;;;;;;;28.46;43.39;101737.56;5054234;28;20048;-66
2022/07/24 08:16:29;;;;;;;5.88;5.35;;;;;;;28.47;43.24;101730.97;5053272;28;20041;-68
2022/07/24 08:18:56;;;;;;;7.43;4.50;;;;;;;28.55;42.73;101724.41;5054441;28;20047;-68
2022/07/24 08:21:22;;;;;;;11.07;4.38;;;;;;;28.59;42.82;101722.09;5053550;28;20045;-68
2022/07/24 08:23:50;;;;;;;8.52;4.40;;;;;;;28.70;42.84;101724.25;5052747;28;20487;-68
2022/07/24 08:26:17;;;;;;;4.22;3.60;;;;;;;28.83;42.10;101731.75;5053804;28;20068;-68
2022/07/24 08:28:43;;;;;;;9.18;5.30;;;;;;;28.93;41.79;101735.00;5053859;28;20044;-68
2022/07/24 08:31:10;;;;;;;4.25;3.75;;;;;;;29.03;41.60;101744.63;5053126;28;20063;-68
2022/07/24 08:33:36;;;;;;;5.75;3.40;;;;;;;29.17;41.37;101745.50;5053698;28;20133;-69
2022/07/24 08:36:04;;;;;;;4.72;3.25;;;;;;;29.28;41.02;101746.81;5053890;28;20139;-68
2022/07/24 08:38:30;;;;;;;5.25;3.15;;;;;;;29.35;40.80;101750.44;5053965;28;20123;-68
2022/07/24 08:40:57;;;;;;;3.38;2.70;;;;;;;29.40;40.56;101745.13;5053843;28;20029;-68
2022/07/24 08:43:24;;;;;;;3.15;2.80;;;;;;;29.46;40.16;101737.91;5043196;28;20483;-68
2022/07/24 08:45:54;;;;;;;4.85;3.30;;;;;;;29.50;40.01;101734.53;5054348;28;20060;-68
2022/07/24 08:48:21;;;;;;;5.82;2.83;;;;;;;29.54;39.82;101737.72;5053602;28;20493;-68
2022/07/24 08:50:50;;;;;;;4.82;2.70;;;;;;;29.57;39.65;101734.53;5053527;28;20045;-68
2022/07/24 08:53:21;;;;;;;5.00;3.00;;;;;;;29.68;39.52;101733.88;5053814;28;20037;-69
2022/07/24 08:55:48;;;;;;;2.58;2.15;;;;;;;29.82;39.21;101731.97;5053717;28;20060;-68
2022/07/24 08:58:15;;;;;;;3.58;2.50;;;;;;;29.96;39.09;101734.53;5053924;28;20330;-69
2022/07/24 09:00:43;;;;;;;3.13;2.00;;;;;;;30.13;38.80;101734.94;5054005;28;20045;-68
2022/07/24 09:03:14;;;;;;;2.65;2.20;;;;;;;30.18;38.41;101726.84;5053862;28;20055;-68
2022/07/24 09:05:58;;;;;;;2.65;2.17;;;;;;;30.21;37.62;101726.41;5053881;28;20487;-68
2022/07/24 09:08:25;;;;;;;2.40;1.90;;;;;;;30.25;38.06;101729.59;5054248;28;20506;-68
2022/07/24 09:10:59;;;;;;;2.00;1.80;;;;;;;30.27;37.79;101721.91;5053102;28;20061;-68
2022/07/24 09:16:23;;;;;;;2.90;1.90;;;;;;;30.33;37.82;101721.88;5053318;28;20359;-69
2022/07/24 09:19:03;;;;;;;2.10;1.45;;;;;;;30.39;36.71;101717.38;5053453;28;20099;-69
2022/07/24 09:21:36;;;;;;;2.15;1.30;;;;;;;30.36;36.45;101713.13;5053306;28;20519;-68
2022/07/24 09:24:19;;;;;;;2.80;1.50;;;;;;;30.39;36.71;101708.22;5054004;28;20055;-68
2022/07/24 09:26:48;;;;;;;3.63;1.50;;;;;;;30.46;36.72;101698.81;5053871;28;20054;-69
2022/07/24 09:29:17;;;;;;;2.97;1.75;;;;;;;30.60;36.98;101707.97;5053856;28;20041;-68
2022/07/24 09:31:51;;;;;;;2.55;1.50;;;;;;;30.74;36.59;101703.22;5052541;28;20045;-68
2022/07/24 09:34:24;;;;;;;2.13;1.65;;;;;;;30.93;36.41;101708.66;5053335;28;20059;-68
2022/07/24 09:37:02;;;;;;;3.80;1.50;;;;;;;31.10;36.00;101703.41;5051428;28;20045;-68
2022/07/24 09:39:32;;;;;;;3.28;1.60;;;;;;;31.27;35.98;101704.63;5053236;28;20513;-70
2022/07/24 09:41:59;;;;;;;3.88;1.70;;;;;;;31.42;35.26;101706.22;5053051;28;20041;-69
2022/07/24 09:44:26;;;;;;;1.98;1.67;;;;;;;31.43;35.23;101707.94;5051319;28;20057;-69
2022/07/24 09:46:57;;;;;;;3.10;1.50;;;;;;;31.46;34.99;101701.94;5052609;28;20040;-69
2022/07/24 09:49:25;;;;;;;2.00;1.77;;;;;;;31.56;35.07;101696.72;5052144;28;20115;-70
2022/07/24 09:52:04;;;;;;;2.63;1.75;;;;;;;31.64;35.03;101701.13;5052973;28;20049;-69
2022/07/24 09:54:35;;;;;;;2.05;1.85;;;;;;;31.66;34.98;101693.41;5052813;28;20037;-69
2022/07/24 09:57:17;;;;;;;1.92;1.70;;;;;;;31.73;34.94;101683.13;5052747;28;20116;-69
2022/07/24 09:59:53;;;;;;;2.55;1.75;;;;;;;31.87;34.68;101684.69;5051908;28;20048;-70
2022/07/24 10:02:25;;;;;;;2.35;1.90;;;;;;;32.01;35.17;101680.72;5052590;28;20041;-69
2022/07/24 10:04:53;;;;;;;3.92;2.05;;;;;;;32.17;34.37;101673.69;5052597;28;20040;-69
2022/07/24 10:07:22;;;;;;;2.20;1.80;;;;;;;32.20;34.56;101679.66;5051583;28;20043;-69
2022/07/24 10:09:52;;;;;;;2.30;1.88;;;;;;;32.30;33.99;101678.28;5048676;28;20053;-69
2022/07/24 10:12:21;;;;;;;3.40;1.85;;;;;;;32.40;34.18;101675.81;5052730;28;20045;-69
2022/07/24 10:14:50;;;;;;;3.90;1.90;;;;;;;32.46;34.04;101672.09;5052936;28;20493;-69
2022/07/24 10:17:19;;;;;;;2.00;1.65;;;;;;;32.50;33.48;101667.75;5052121;28;20037;-70
2022/07/24 10:19:51;;;;;;;2.60;1.75;;;;;;;32.45;33.37;101662.91;5052086;28;20062;-69
2022/07/24 10:22:20;;;;;;;2.80;1.77;;;;;;;32.45;33.50;101667.59;5052256;28;20036;-69
2022/07/24 10:25:07;;;;;;;2.03;1.60;;;;;;;32.55;33.67;101662.34;5052485;28;20041;-70
2022/07/24 10:27:35;;;;;;;1.88;1.63;;;;;;;32.68;33.84;101661.31;5052104;28;20060;-70
2022/07/24 10:30:05;;;;;;;2.15;1.58;;;;;;;32.72;33.46;101654.22;5051801;28;20543;-69
2022/07/24 10:32:33;;;;;;;3.65;1.83;;;;;;;32.75;33.68;101659.31;5051438;28;20072;-69
2022/07/24 10:35:22;;;;;;;2.55;1.30;;;;;;;32.72;33.69;101655.06;5052163;28;20049;-69
2022/07/24 10:37:59;;;;;;;3.00;1.80;;;;;;;32.83;33.58;101656.22;5051911;28;20045;-69
2022/07/24 10:40:36;;;;;;;2.88;1.60;;;;;;;32.93;33.26;101648.16;5050364;28;20067;-69
2022/07/24 10:43:08;;;;;;;5.30;3.60;;;;;;;32.92;32.84;101645.59;5051964;28;20036;-69
2022/07/24 10:45:46;;;;;;;2.80;1.70;;;;;;;32.89;32.76;101644.13;5051966;28;20047;-69
2022/07/24 10:48:25;;;;;;;6.78;5.25;;;;;;;32.95;33.32;101642.34;5051451;28;20041;-70
2022/07/24 10:50:58;;;;;;;5.35;3.25;;;;;;;33.08;33.01;101637.41;5051648;28;20556;-69
2022/07/24 10:53:29;;;;;;;3.75;1.83;;;;;;;33.16;32.88;101633.44;5050534;28;20075;-68
2022/07/24 10:56:22;;;;;;;8.45;5.25;;;;;;;33.26;32.51;101639.25;5051841;28;20059;-69
2022/07/24 10:58:54;;;;;;;;;;;;;;;33.33;32.71;101628.88;5052215;28;20036;-69
2022/07/24 11:01:37;;;;;;;7.78;1.85;;;;;;;33.42;32.72;101627.44;5051391;28;20386;-69
2022/07/24 11:04:25;;;;;;;4.05;3.65;;;;;;;33.40;32.35;101614.84;5051638;28;20053;-70
2022/07/24 11:07:12;;;;;;;4.40;3.85;;;;;;;33.43;32.55;101626.34;5051745;28;20123;-69
2022/07/24 11:10:07;;;;;;;2.70;2.08;;;;;;;33.57;32.09;101626.97;5051329;28;20446;-69
2022/07/24 11:12:47;;;;;;;3.53;3.08;;;;;;;33.59;31.77;101624.78;5050096;28;20212;-70
2022/07/24 11:18:14;;;;;;;3.47;2.50;;;;;;;33.65;32.39;101623.81;5051681;28;20037;-69
2022/07/24 11:20:41;;;;;;;2.38;2.10;;;;;;;33.74;32.08;101624.31;5054612;28;20071;-70
2022/07/24 11:23:19;;;;;;;2.13;1.52;;;;;;;33.80;31.54;101628.91;5055792;28;20206;-70
2022/07/24 11:25:49;;;;;;;2.53;1.45;;;;;;;33.86;31.66;101616.81;5054473;28;20041;-69
2022/07/24 11:28:16;;;;;;;1.52;1.42;;;;;;;33.85;31.28;101612.31;5055788;28;20041;-69